Time;durP1;ratioP1;P1;durP2;ratioP2;P2;SDS_P1;SDS_P2;PMS_P1;PMS_P2;Temp;Humidity;BMP_temperature;BMP_pressure;BME280_temperature;BME280_humidity;BME280_pressure;Samples;Min_cycle;Max_cycle;Signal;HPM_P1;HPM_P2
2023/05/15 00:01:23;;;;;;;13.63;11.33;;;;;;;;;;765043;181;814874;-85
2023/05/15 00:03:48;;;;;;;12.23;9.97;;;;;;;;;;764612;183;850573;-84
2023/05/15 00:06:14;;;;;;;15.82;10.55;;;;;;;;;;757623;180;909233;-84
2023/05/15 00:08:40;;;;;;;15.87;12.17;;;;;;;;;;757828;181;986778;-84
2023/05/15 00:11:06;;;;;;;14.13;11.60;;;;;;;;;;759073;180;917223;-84
2023/05/15 00:13:31;;;;;;;20.43;12.43;;;;;;;;;;769465;180;920502;-85
2023/05/15 00:15:57;;;;;;;15.00;12.00;;;;;;;;;;748451;184;876028;-84
2023/05/15 00:18:23;;;;;;;14.30;10.63;;;;;;;;;;739407;187;713934;-85
2023/05/15 00:20:49;;;;;;;12.87;10.50;;;;;;;;;;746078;187;905590;-85
2023/05/15 00:23:15;;;;;;;13.60;10.40;;;;;;;;;;743351;187;913537;-86
2023/05/15 00:25:41;;;;;;;12.57;10.37;;;;;;;;;;757702;183;892841;-85
2023/05/15 00:28:07;;;;;;;14.40;12.13;;;;;;;;;;762320;180;920293;-84
2023/05/15 00:30:32;;;;;;;15.13;9.90;;;;;;;;;;763511;181;849399;-85
2023/05/15 00:32:58;;;;;;;14.43;11.15;;;;;;;;;;757129;181;916107;-85
2023/05/15 00:35:24;;;;;;;15.18;11.88;;;;;;;;;;767086;181;916976;-84
2023/05/15 00:37:50;;;;;;;16.90;11.30;;;;;;;;;;754352;184;837854;-85
2023/05/15 00:40:19;;;;;;;14.30;10.60;;;;;;;;;;757954;183;919222;-85
2023/05/15 00:42:45;;;;;;;19.37;12.00;;;;;;;;;;762368;182;814907;-85
2023/05/15 00:45:11;;;;;;;15.20;10.57;;;;;;;;;;763040;180;854769;-85
2023/05/15 00:47:37;;;;;;;15.13;10.87;;;;;;;;;;764895;181;918268;-85
2023/05/15 00:50:02;;;;;;;14.50;11.93;;;;;;;;;;756993;181;903915;-84
2023/05/15 00:52:28;;;;;;;15.48;11.27;;;;;;;;;;762498;181;869689;-85
2023/05/15 00:54:54;;;;;;;14.93;12.70;;;;;;;;;;758245;181;927022;-84
2023/05/15 00:57:20;;;;;;;14.32;11.68;;;;;;;;;;764752;180;829475;-84
2023/05/15 00:59:46;;;;;;;16.43;10.93;;;;;;;;;;760275;181;660763;-83
2023/05/15 01:02:12;;;;;;;14.20;11.07;;;;;;;;;;768541;182;939930;-85
2023/05/15 01:04:38;;;;;;;12.77;10.60;;;;;;;;;;761218;183;817428;-84
2023/05/15 01:07:03;;;;;;;15.10;11.93;;;;;;;;;;764283;180;815451;-83
2023/05/15 01:09:29;;;;;;;15.67;11.73;;;;;;;;;;763003;182;929575;-84
2023/05/15 01:11:55;;;;;;;16.80;11.90;;;;;;;;;;734673;186;815145;-84
2023/05/15 01:14:21;;;;;;;16.27;11.95;;;;;;;;;;763034;180;918552;-85
2023/05/15 01:16:47;;;;;;;18.20;10.77;;;;;;;;;;762498;181;918832;-85
2023/05/15 01:19:13;;;;;;;15.80;11.90;;;;;;;;;;763573;180;864668;-84
2023/05/15 01:21:41;;;;;;;17.10;11.27;;;;;;;;;;757561;181;917533;-84
2023/05/15 01:24:13;;;;;;;16.10;11.93;;;;;;;;;;764830;180;813002;-85
2023/05/15 01:26:45;;;;;;;14.73;11.23;;;;;;;;;;776190;178;714315;-84
2023/05/15 01:29:11;;;;;;;18.00;13.40;;;;;;;;;;760978;183;814409;-86
2023/05/15 01:31:37;;;;;;;15.87;12.27;;;;;;;;;;762030;181;836782;-84
2023/05/15 01:34:03;;;;;;;16.00;12.80;;;;;;;;;;764705;181;884785;-84
2023/05/15 01:36:33;;;;;;;15.20;12.20;;;;;;;;;;762813;180;714776;-86
2023/05/15 01:38:59;;;;;;;17.73;12.00;;;;;;;;;;759399;181;910953;-85
2023/05/15 01:41:32;;;;;;;14.40;12.03;;;;;;;;;;767001;180;837649;-84
2023/05/15 01:43:58;;;;;;;16.97;13.00;;;;;;;;;;757008;183;919294;-84
2023/05/15 01:46:24;;;;;;;16.60;11.77;;;;;;;;;;752923;186;919132;-84
2023/05/15 01:48:50;;;;;;;16.50;13.43;;;;;;;;;;742702;187;918329;-84
2023/05/15 01:51:16;;;;;;;14.90;12.00;;;;;;;;;;738365;187;918217;-83
2023/05/15 01:53:42;;;;;;;18.73;13.40;;;;;;;;;;765530;183;919646;-84
2023/05/15 01:56:08;;;;;;;23.23;12.50;;;;;;;;;;763576;183;916162;-85
2023/05/15 01:58:33;;;;;;;15.63;13.07;;;;;;;;;;761820;180;813952;-84
2023/05/15 02:00:59;;;;;;;18.17;12.90;;;;;;;;;;772735;180;917002;-85
2023/05/15 02:03:25;;;;;;;15.57;11.67;;;;;;;;;;762444;180;915274;-83
2023/05/15 02:05:52;;;;;;;18.40;14.17;;;;;;;;;;764789;180;921019;-83
2023/05/15 02:08:17;;;;;;;19.37;12.70;;;;;;;;;;767267;180;913749;-83
2023/05/15 02:10:43;;;;;;;18.10;13.20;;;;;;;;;;771670;182;813719;-83
2023/05/15 02:13:09;;;;;;;19.10;13.57;;;;;;;;;;765679;181;915939;-83
2023/05/15 02:15:34;;;;;;;19.43;13.30;;;;;;;;;;755779;181;865324;-83
2023/05/15 02:18:00;;;;;;;17.70;12.80;;;;;;;;;;765146;181;920395;-83
2023/05/15 02:20:26;;;;;;;17.77;13.70;;;;;;;;;;756122;181;947641;-83
2023/05/15 02:22:52;;;;;;;16.27;13.47;;;;;;;;;;763171;180;871386;-83
2023/05/15 02:25:18;;;;;;;16.00;12.73;;;;;;;;;;766413;180;919991;-83
2023/05/15 02:27:46;;;;;;;18.70;12.87;;;;;;;;;;764503;180;915377;-83
2023/05/15 02:30:28;;;;;;;20.30;14.80;;;;;;;;;;758426;183;915995;-83
2023/05/15 02:33:14;;;;;;;18.70;13.87;;;;;;;;;;758285;180;923319;-83
2023/05/15 02:35:45;;;;;;;21.03;14.50;;;;;;;;;;768859;181;922782;-83
2023/05/15 02:38:11;;;;;;;19.00;14.02;;;;;;;;;;762944;181;919657;-84
2023/05/15 02:40:37;;;;;;;17.40;13.80;;;;;;;;;;763550;182;815094;-84
2023/05/15 02:43:03;;;;;;;28.60;16.10;;;;;;;;;;758702;181;916037;-83
2023/05/15 02:45:29;;;;;;;22.00;15.70;;;;;;;;;;759323;182;913345;-84
2023/05/15 02:47:55;;;;;;;21.87;14.60;;;;;;;;;;769697;181;798128;-84
2023/05/15 02:50:21;;;;;;;21.13;14.23;;;;;;;;;;768447;181;633964;-84
2023/05/15 02:52:46;;;;;;;17.87;13.07;;;;;;;;;;764338;180;914740;-83
2023/05/15 02:55:12;;;;;;;20.37;14.87;;;;;;;;;;761893;181;916399;-82
2023/05/15 02:57:38;;;;;;;20.70;14.43;;;;;;;;;;763784;181;915079;-83
2023/05/15 03:00:07;;;;;;;20.87;15.00;;;;;;;;;;760980;181;914473;-83
2023/05/15 03:02:30;;;;;;;19.23;16.20;;;;;;;;;;755951;183;939729;-83
2023/05/15 03:04:56;;;;;;;23.30;15.20;;;;;;;;;;764550;181;892552;-83
2023/05/15 03:07:22;;;;;;;17.03;13.47;;;;;;;;;;765845;181;805906;-82
2023/05/15 03:09:48;;;;;;;19.33;15.13;;;;;;;;;;763872;180;811553;-81
2023/05/15 03:12:14;;;;;;;21.90;14.57;;;;;;;;;;768941;181;814822;-82
2023/05/15 03:14:40;;;;;;;20.33;14.57;;;;;;;;;;749131;184;814974;-82
2023/05/15 03:17:06;;;;;;;19.77;14.80;;;;;;;;;;761363;181;915066;-83
2023/05/15 03:19:31;;;;;;;27.17;18.40;;;;;;;;;;765668;180;916055;-82
2023/05/15 03:21:57;;;;;;;19.27;14.43;;;;;;;;;;771469;181;816742;-83
2023/05/15 03:24:23;;;;;;;22.75;16.58;;;;;;;;;;751528;184;813626;-84
2023/05/15 03:26:49;;;;;;;21.33;15.17;;;;;;;;;;766083;180;914047;-81
2023/05/15 03:29:15;;;;;;;19.60;14.73;;;;;;;;;;764090;181;909768;-83
2023/05/15 03:31:41;;;;;;;25.53;17.50;;;;;;;;;;757497;183;915687;-83
2023/05/15 03:34:06;;;;;;;21.30;15.30;;;;;;;;;;762644;180;932138;-83
2023/05/15 03:36:32;;;;;;;22.77;17.10;;;;;;;;;;765110;180;912787;-82
2023/05/15 03:38:58;;;;;;;26.17;17.63;;;;;;;;;;757992;180;917169;-83
2023/05/15 03:41:26;;;;;;;24.35;14.63;;;;;;;;;;763258;180;938436;-83
2023/05/15 03:43:50;;;;;;;24.97;17.67;;;;;;;;;;762590;180;920416;-82
2023/05/15 03:46:16;;;;;;;27.00;16.93;;;;;;;;;;764453;180;813627;-82
2023/05/15 03:48:42;;;;;;;23.00;16.87;;;;;;;;;;759810;180;914040;-82
2023/05/15 03:51:07;;;;;;;24.80;16.10;;;;;;;;;;763933;183;864627;-83
2023/05/15 03:53:33;;;;;;;23.30;16.87;;;;;;;;;;764893;181;817339;-83
2023/05/15 03:55:59;;;;;;;21.20;14.70;;;;;;;;;;758267;181;909139;-83
2023/05/15 03:58:25;;;;;;;17.87;14.87;;;;;;;;;;767543;180;817005;-83
2023/05/15 04:00:51;;;;;;;21.70;15.43;;;;;;;;;;768297;180;945854;-83
2023/05/15 04:03:17;;;;;;;19.03;14.83;;;;;;;;;;765913;180;917433;-84
2023/05/15 04:05:43;;;;;;;20.23;15.47;;;;;;;;;;758581;181;923070;-83
2023/05/15 04:08:09;;;;;;;24.10;15.73;;;;;;;;;;768480;181;815665;-83
2023/05/15 04:10:34;;;;;;;17.20;13.57;;;;;;;;;;762859;183;896482;-83
2023/05/15 04:13:00;;;;;;;20.08;13.43;;;;;;;;;;761657;181;907486;-84
2023/05/15 04:15:27;;;;;;;21.60;15.70;;;;;;;;;;766631;181;905020;-82
2023/05/15 04:17:52;;;;;;;18.17;13.63;;;;;;;;;;769618;180;810531;-83
2023/05/15 04:20:18;;;;;;;16.37;12.70;;;;;;;;;;767103;180;909606;-84
2023/05/15 04:22:44;;;;;;;23.30;15.40;;;;;;;;;;750056;184;911563;-83
2023/05/15 04:25:10;;;;;;;17.57;13.80;;;;;;;;;;737902;190;916427;-83
2023/05/15 04:27:35;;;;;;;24.63;13.70;;;;;;;;;;758862;182;806399;-83
2023/05/15 04:30:02;;;;;;;17.37;13.17;;;;;;;;;;758845;183;989866;-83
2023/05/15 04:32:27;;;;;;;18.70;13.67;;;;;;;;;;767421;183;815715;-84
2023/05/15 04:34:53;;;;;;;22.40;13.83;;;;;;;;;;756274;181;889901;-82
2023/05/15 04:37:19;;;;;;;17.20;12.40;;;;;;;;;;763523;180;934177;-83
2023/05/15 04:39:45;;;;;;;18.10;12.43;;;;;;;;;;761991;181;909650;-82
2023/05/15 04:42:11;;;;;;;17.90;13.60;;;;;;;;;;775766;180;912613;-83
2023/05/15 04:44:37;;;;;;;17.30;12.67;;;;;;;;;;764925;182;878096;-82
2023/05/15 04:47:03;;;;;;;17.20;12.63;;;;;;;;;;764557;180;949072;-83
2023/05/15 04:49:29;;;;;;;17.30;13.37;;;;;;;;;;770523;180;914102;-83
2023/05/15 04:51:55;;;;;;;17.92;10.98;;;;;;;;;;766235;180;916821;-83
2023/05/15 04:54:21;;;;;;;17.00;11.10;;;;;;;;;;766538;180;890605;-83
2023/05/15 04:56:46;;;;;;;16.53;12.00;;;;;;;;;;767768;180;910700;-83
2023/05/15 04:59:12;;;;;;;16.37;11.80;;;;;;;;;;764574;183;851344;-83
2023/05/15 05:01:38;;;;;;;14.80;10.60;;;;;;;;;;759002;182;915370;-82
2023/05/15 05:04:04;;;;;;;17.50;13.77;;;;;;;;;;772006;181;914283;-83
2023/05/15 05:06:30;;;;;;;15.53;11.70;;;;;;;;;;765442;180;918831;-83
2023/05/15 05:08:56;;;;;;;18.03;13.90;;;;;;;;;;762052;181;816297;-82
2023/05/15 05:11:23;;;;;;;16.77;12.23;;;;;;;;;;764001;181;815179;-83
2023/05/15 05:13:48;;;;;;;20.90;12.70;;;;;;;;;;763869;181;900091;-83
2023/05/15 05:16:15;;;;;;;16.40;12.30;;;;;;;;;;763411;181;833215;-82
2023/05/15 05:18:40;;;;;;;15.40;11.70;;;;;;;;;;763433;181;919318;-82
2023/05/15 05:21:06;;;;;;;17.70;12.63;;;;;;;;;;760485;181;849088;-83
2023/05/15 05:23:32;;;;;;;17.27;13.13;;;;;;;;;;763841;181;910028;-83
2023/05/15 05:25:58;;;;;;;16.37;11.90;;;;;;;;;;755233;181;919302;-83
2023/05/15 05:28:24;;;;;;;15.17;11.63;;;;;;;;;;768155;183;932574;-84
2023/05/15 05:30:50;;;;;;;15.17;11.07;;;;;;;;;;762852;180;978065;-83
2023/05/15 05:33:15;;;;;;;15.00;10.57;;;;;;;;;;771403;179;849034;-82
2023/05/15 05:35:41;;;;;;;17.17;11.77;;;;;;;;;;771556;180;717730;-81
2023/05/15 05:38:07;;;;;;;13.47;10.87;;;;;;;;;;775859;183;622088;-81
2023/05/15 05:40:33;;;;;;;18.00;12.50;;;;;;;;;;759722;183;917073;-83
2023/05/15 05:43:00;;;;;;;16.23;11.57;;;;;;;;;;763590;182;816627;-83
2023/05/15 05:45:25;;;;;;;17.27;12.50;;;;;;;;;;767840;183;916721;-83
2023/05/15 05:47:51;;;;;;;14.53;10.93;;;;;;;;;;757609;182;926349;-82
2023/05/15 05:50:17;;;;;;;16.60;11.10;;;;;;;;;;767199;180;921262;-81
2023/05/15 05:52:43;;;;;;;13.70;10.30;;;;;;;;;;769758;180;917818;-82
2023/05/15 05:55:09;;;;;;;9.83;7.93;;;;;;;;;;742123;186;937972;-82
2023/05/15 05:57:35;;;;;;;11.13;9.13;;;;;;;;;;758103;180;975676;-83
2023/05/15 06:00:01;;;;;;;13.27;10.33;;;;;;;;;;766108;182;914508;-82
2023/05/15 06:02:27;;;;;;;11.57;8.73;;;;;;;;;;766452;182;849140;-82
2023/05/15 06:04:53;;;;;;;10.93;8.80;;;;;;;;;;763048;182;915028;-83
2023/05/15 06:07:18;;;;;;;13.30;10.80;;;;;;;;;;758653;182;1018431;-82
2023/05/15 06:09:47;;;;;;;20.73;17.20;;;;;;;;;;772539;182;802127;-82
2023/05/15 06:12:11;;;;;;;15.30;13.13;;;;;;;;;;757926;180;801161;-82
2023/05/15 06:14:36;;;;;;;16.70;14.13;;;;;;;;;;762167;183;918367;-82
2023/05/15 06:17:02;;;;;;;13.10;10.03;;;;;;;;;;773300;182;794394;-82
2023/05/15 06:19:28;;;;;;;11.77;9.20;;;;;;;;;;755500;182;935053;-82
2023/05/15 06:21:54;;;;;;;13.02;8.23;;;;;;;;;;754167;181;940603;-82
2023/05/15 06:24:19;;;;;;;10.77;8.43;;;;;;;;;;767557;181;922897;-83
2023/05/15 06:26:45;;;;;;;8.50;6.70;;;;;;;;;;760299;181;916564;-82
2023/05/15 06:29:11;;;;;;;9.73;6.47;;;;;;;;;;754601;181;922508;-84
2023/05/15 06:31:37;;;;;;;7.43;6.33;;;;;;;;;;764616;183;815246;-84
2023/05/15 06:34:03;;;;;;;9.60;6.80;;;;;;;;;;766478;181;917903;-83
2023/05/15 06:36:29;;;;;;;8.37;7.07;;;;;;;;;;761778;180;1169977;-83
2023/05/15 06:38:55;;;;;;;11.03;7.83;;;;;;;;;;766589;181;914923;-84
2023/05/15 06:41:20;;;;;;;9.60;6.57;;;;;;;;;;766656;183;807193;-84
2023/05/15 06:43:46;;;;;;;10.53;7.23;;;;;;;;;;762608;183;816648;-84
2023/05/15 06:46:15;;;;;;;10.45;7.95;;;;;;;;;;765384;180;917916;-83
2023/05/15 06:48:38;;;;;;;6.40;4.80;;;;;;;;;;770625;181;918815;-83
2023/05/15 06:51:04;;;;;;;6.07;4.32;;;;;;;;;;761569;181;940254;-84
2023/05/15 06:53:30;;;;;;;5.23;3.80;;;;;;;;;;761441;180;915232;-83
2023/05/15 06:55:55;;;;;;;6.07;4.70;;;;;;;;;;758516;181;819444;-82
2023/05/15 06:58:21;;;;;;;4.60;3.77;;;;;;;;;;772617;180;798828;-83
2023/05/15 07:00:47;;;;;;;4.80;3.27;;;;;;;;;;762713;181;914691;-82
2023/05/15 07:03:14;;;;;;;4.70;3.20;;;;;;;;;;759332;180;921760;-83
2023/05/15 07:05:39;;;;;;;5.30;3.80;;;;;;;;;;766519;180;916870;-82
2023/05/15 07:08:05;;;;;;;4.87;3.70;;;;;;;;;;766869;180;917411;-83
2023/05/15 07:10:31;;;;;;;4.53;3.08;;;;;;;;;;760156;181;931606;-83
2023/05/15 07:12:56;;;;;;;3.70;2.97;;;;;;;;;;765906;182;818664;-83
2023/05/15 07:15:22;;;;;;;4.80;2.87;;;;;;;;;;764250;180;986784;-84
2023/05/15 07:17:48;;;;;;;4.10;3.40;;;;;;;;;;755783;180;1015769;-83
2023/05/15 07:20:14;;;;;;;3.93;3.13;;;;;;;;;;769437;180;818272;-83
2023/05/15 07:22:40;;;;;;;5.33;2.93;;;;;;;;;;765911;180;887216;-82
2023/05/15 07:25:06;;;;;;;4.63;3.20;;;;;;;;;;767223;181;921107;-83
2023/05/15 07:27:32;;;;;;;3.83;2.40;;;;;;;;;;768173;181;919694;-81
2023/05/15 07:29:58;;;;;;;4.00;2.37;;;;;;;;;;764196;182;918547;-81
2023/05/15 07:32:23;;;;;;;4.20;1.93;;;;;;;;;;758362;182;925161;-82
2023/05/15 07:34:49;;;;;;;5.23;1.73;;;;;;;;;;758249;182;922972;-81
2023/05/15 07:37:15;;;;;;;2.27;1.30;;;;;;;;;;763836;183;904138;-82
2023/05/15 07:39:41;;;;;;;5.33;1.30;;;;;;;;;;761204;181;835726;-81
2023/05/15 07:42:07;;;;;;;2.40;1.40;;;;;;;;;;733822;189;918569;-82
2023/05/15 07:44:33;;;;;;;2.10;1.30;;;;;;;;;;762320;183;917285;-83
2023/05/15 07:46:58;;;;;;;2.90;1.57;;;;;;;;;;762345;183;918848;-82
2023/05/15 07:49:24;;;;;;;2.53;1.47;;;;;;;;;;756802;180;948831;-81
2023/05/15 07:51:50;;;;;;;2.43;1.60;;;;;;;;;;762476;181;931718;-81
2023/05/15 07:54:16;;;;;;;2.20;1.40;;;;;;;;;;770765;181;816157;-82
2023/05/15 07:56:42;;;;;;;2.40;1.40;;;;;;;;;;755552;182;917357;-83
2023/05/15 07:59:08;;;;;;;5.10;2.13;;;;;;;;;;763868;181;812844;-83
2023/05/15 08:01:34;;;;;;;3.17;2.20;;;;;;;;;;767920;181;912538;-82
2023/05/15 08:03:59;;;;;;;2.70;2.13;;;;;;;;;;754777;183;918654;-82
2023/05/15 08:06:25;;;;;;;4.17;3.00;;;;;;;;;;760411;183;916168;-82
2023/05/15 08:08:51;;;;;;;4.87;3.80;;;;;;;;;;764262;181;915013;-83
2023/05/15 08:11:17;;;;;;;6.10;5.50;;;;;;;;;;763177;181;920317;-81
2023/05/15 08:13:43;;;;;;;7.10;6.03;;;;;;;;;;752951;183;919516;-82
2023/05/15 08:16:09;;;;;;;7.70;6.50;;;;;;;;;;766706;181;913037;-80
2023/05/15 08:18:35;;;;;;;8.30;6.10;;;;;;;;;;765946;182;917695;-82
2023/05/15 08:21:01;;;;;;;8.57;6.17;;;;;;;;;;767327;182;848856;-82
2023/05/15 08:23:27;;;;;;;6.80;5.97;;;;;;;;;;761809;182;916069;-82
2023/05/15 08:25:53;;;;;;;6.40;5.60;;;;;;;;;;772199;180;916514;-82
2023/05/15 08:28:19;;;;;;;6.50;5.70;;;;;;;;;;766048;180;1021321;-81
2023/05/15 08:30:44;;;;;;;6.33;5.13;;;;;;;;;;764344;180;903637;-81
2023/05/15 08:33:10;;;;;;;4.60;4.10;;;;;;;;;;770962;180;904753;-81
2023/05/15 08:35:36;;;;;;;5.93;5.33;;;;;;;;;;765871;180;1058227;-83
2023/05/15 08:38:02;;;;;;;6.35;5.45;;;;;;;;;;754462;180;1022199;-82
2023/05/15 08:40:28;;;;;;;5.00;4.50;;;;;;;;;;767683;183;873030;-81
2023/05/15 08:42:54;;;;;;;4.50;3.50;;;;;;;;;;757991;183;934341;-83
2023/05/15 08:45:20;;;;;;;4.67;4.17;;;;;;;;;;761472;180;918337;-82
2023/05/15 08:47:46;;;;;;;4.43;3.10;;;;;;;;;;758765;181;902928;-82
2023/05/15 08:50:13;;;;;;;4.03;2.40;;;;;;;;;;767413;180;908362;-82
2023/05/15 08:52:37;;;;;;;4.30;2.97;;;;;;;;;;764129;182;904029;-82
2023/05/15 08:55:04;;;;;;;4.53;3.60;;;;;;;;;;763018;181;920611;-81
2023/05/15 08:57:30;;;;;;;4.00;3.60;;;;;;;;;;765465;181;918042;-82
2023/05/15 08:59:55;;;;;;;4.80;3.83;;;;;;;;;;758617;183;834512;-82
2023/05/15 09:02:21;;;;;;;5.10;3.30;;;;;;;;;;761043;181;920645;-83
2023/05/15 09:04:48;;;;;;;4.67;3.97;;;;;;;;;;761917;180;918605;-82
2023/05/15 09:07:14;;;;;;;4.50;3.87;;;;;;;;;;762119;181;940548;-81
2023/05/15 09:09:40;;;;;;;3.73;3.00;;;;;;;;;;762701;181;826917;-83
2023/05/15 09:12:06;;;;;;;4.13;2.83;;;;;;;;;;758740;180;918319;-82
2023/05/15 09:14:31;;;;;;;3.30;3.00;;;;;;;;;;771819;183;814780;-83
2023/05/15 09:16:58;;;;;;;4.13;2.83;;;;;;;;;;762173;181;864763;-84
2023/05/15 09:19:23;;;;;;;4.40;3.10;;;;;;;;;;758527;180;816283;-83
2023/05/15 09:21:49;;;;;;;3.43;2.50;;;;;;;;;;766237;181;932055;-82
2023/05/15 09:24:19;;;;;;;2.87;2.27;;;;;;;;;;760445;180;1020326;-81
2023/05/15 09:26:45;;;;;;;3.50;2.47;;;;;;;;;;752635;184;922603;-83
2023/05/15 09:29:10;;;;;;;3.03;2.50;;;;;;;;;;767018;180;918391;-83
2023/05/15 09:31:36;;;;;;;3.37;2.60;;;;;;;;;;768265;180;918593;-84
2023/05/15 09:34:04;;;;;;;4.23;2.93;;;;;;;;;;764606;180;918507;-83
2023/05/15 09:36:28;;;;;;;3.30;2.70;;;;;;;;;;765801;180;892792;-82
2023/05/15 09:38:54;;;;;;;3.17;2.50;;;;;;;;;;760292;180;1025625;-83
2023/05/15 09:41:20;;;;;;;4.03;2.80;;;;;;;;;;760067;180;885765;-83
2023/05/15 09:43:46;;;;;;;4.90;3.40;;;;;;;;;;763524;180;1050916;-83
2023/05/15 09:46:14;;;;;;;5.37;3.60;;;;;;;;;;770320;180;896051;-83
2023/05/15 09:48:37;;;;;;;5.20;3.77;;;;;;;;;;760591;180;917997;-83
2023/05/15 09:51:05;;;;;;;4.40;3.87;;;;;;;;;;757379;184;893800;-82
2023/05/15 09:53:30;;;;;;;6.60;4.15;;;;;;;;;;753527;184;919464;-82
2023/05/15 09:55:55;;;;;;;5.50;4.63;;;;;;;;;;765273;183;918585;-83
2023/05/15 09:58:22;;;;;;;10.17;4.50;;;;;;;;;;759192;182;918713;-83
2023/05/15 10:00:47;;;;;;;3.93;3.53;;;;;;;;;;762521;183;915915;-82
2023/05/15 10:03:13;;;;;;;3.97;3.57;;;;;;;;;;768522;183;958524;-82
2023/05/15 10:05:38;;;;;;;4.82;3.83;;;;;;;;;;761147;180;816881;-82
2023/05/15 10:08:04;;;;;;;4.50;3.53;;;;;;;;;;761458;180;918742;-82
2023/05/15 10:10:30;;;;;;;4.43;3.40;;;;;;;;;;765959;180;817528;-81
2023/05/15 10:13:00;;;;;;;4.23;3.40;;;;;;;;;;753793;180;817851;-82
2023/05/15 10:15:24;;;;;;;4.17;2.70;;;;;;;;;;761993;183;895458;-82
2023/05/15 10:17:50;;;;;;;6.67;3.83;;;;;;;;;;771275;183;917641;-81
2023/05/15 10:20:16;;;;;;;6.10;3.33;;;;;;;;;;765411;180;817058;-81
2023/05/15 10:22:42;;;;;;;3.00;2.40;;;;;;;;;;763869;181;919895;-82
2023/05/15 10:25:09;;;;;;;3.50;2.40;;;;;;;;;;764528;180;907558;-82
2023/05/15 10:27:34;;;;;;;4.87;2.53;;;;;;;;;;766247;183;919558;-81
2023/05/15 10:30:00;;;;;;;3.30;2.27;;;;;;;;;;761615;183;918884;-82
2023/05/15 10:32:26;;;;;;;3.80;1.93;;;;;;;;;;762521;181;872422;-83
2023/05/15 10:34:52;;;;;;;3.20;2.10;;;;;;;;;;769826;181;801363;-83
2023/05/15 10:37:17;;;;;;;3.05;2.40;;;;;;;;;;764756;181;922825;-81
2023/05/15 10:39:43;;;;;;;4.17;3.13;;;;;;;;;;760425;180;919804;-84
2023/05/15 10:42:09;;;;;;;5.17;4.10;;;;;;;;;;764233;180;815599;-82
2023/05/15 10:44:35;;;;;;;5.53;3.43;;;;;;;;;;763880;180;916527;-82
2023/05/15 10:47:01;;;;;;;7.37;3.07;;;;;;;;;;758314;180;937493;-82
2023/05/15 10:49:27;;;;;;;4.00;3.10;;;;;;;;;;763636;183;919181;-82
2023/05/15 10:51:52;;;;;;;3.70;3.10;;;;;;;;;;764192;181;813327;-82
2023/05/15 10:54:18;;;;;;;4.43;3.90;;;;;;;;;;762764;181;920148;-83
2023/05/15 10:56:44;;;;;;;5.73;3.50;;;;;;;;;;760722;181;918729;-82
2023/05/15 10:59:10;;;;;;;5.07;4.10;;;;;;;;;;772299;180;917936;-82
2023/05/15 11:01:37;;;;;;;4.83;3.43;;;;;;;;;;756579;183;923977;-81
2023/05/15 11:04:05;;;;;;;4.77;3.67;;;;;;;;;;753074;180;1370282;-80
2023/05/15 11:06:31;;;;;;;5.90;4.13;;;;;;;;;;767786;183;918091;-81
2023/05/15 11:08:57;;;;;;;5.60;3.93;;;;;;;;;;762187;181;940856;-81
2023/05/15 11:11:24;;;;;;;4.77;4.17;;;;;;;;;;754149;181;918468;-82
2023/05/15 11:13:55;;;;;;;7.50;4.63;;;;;;;;;;755495;181;983364;-81
2023/05/15 11:16:27;;;;;;;5.90;4.30;;;;;;;;;;770095;183;816657;-81
2023/05/15 11:18:53;;;;;;;5.27;4.43;;;;;;;;;;755315;184;639272;-83
2023/05/15 11:21:19;;;;;;;4.90;4.18;;;;;;;;;;760945;183;909034;-82
2023/05/15 11:23:44;;;;;;;5.00;4.13;;;;;;;;;;767771;180;807113;-81
2023/05/15 11:26:10;;;;;;;4.20;3.30;;;;;;;;;;754166;181;919719;-83
2023/05/15 11:28:37;;;;;;;4.87;3.83;;;;;;;;;;762545;183;859112;-83
2023/05/15 11:31:03;;;;;;;5.57;4.18;;;;;;;;;;751961;185;919135;-82
2023/05/15 11:33:30;;;;;;;3.93;3.33;;;;;;;;;;768363;183;1023702;-84
2023/05/15 11:35:56;;;;;;;5.23;4.60;;;;;;;;;;751089;181;911579;-83
2023/05/15 11:38:23;;;;;;;4.07;3.50;;;;;;;;;;762962;183;920286;-82
2023/05/15 11:40:51;;;;;;;3.20;2.67;;;;;;;;;;766081;181;869647;-82
2023/05/15 11:43:15;;;;;;;4.20;2.60;;;;;;;;;;763010;183;855936;-83
2023/05/15 11:45:41;;;;;;;4.17;3.00;;;;;;;;;;761462;181;940847;-81
2023/05/15 11:48:07;;;;;;;7.17;2.50;;;;;;;;;;760429;183;916084;-82
2023/05/15 11:50:33;;;;;;;4.70;2.80;;;;;;;;;;758007;184;911313;-82
2023/05/15 11:53:01;;;;;;;2.43;1.70;;;;;;;;;;760452;182;895828;-82
2023/05/15 11:55:27;;;;;;;2.72;1.80;;;;;;;;;;756151;180;1134587;-83
2023/05/15 11:57:53;;;;;;;2.33;1.50;;;;;;;;;;763999;180;818264;-81
2023/05/15 12:00:18;;;;;;;2.50;1.33;;;;;;;;;;763159;180;1014299;-84
2023/05/15 12:02:44;;;;;;;3.13;1.60;;;;;;;;;;761366;180;921192;-83
2023/05/15 12:05:10;;;;;;;2.30;1.43;;;;;;;;;;769272;181;814536;-81
2023/05/15 12:07:38;;;;;;;5.93;1.40;;;;;;;;;;764550;180;925662;-82
2023/05/15 12:10:04;;;;;;;2.20;1.20;;;;;;;;;;763902;181;922355;-81
2023/05/15 12:12:30;;;;;;;2.40;1.60;;;;;;;;;;760653;181;917787;-81
2023/05/15 12:14:57;;;;;;;2.10;1.20;;;;;;;;;;768562;181;879980;-81
2023/05/15 12:17:22;;;;;;;2.10;1.10;;;;;;;;;;758013;181;918408;-83
2023/05/15 12:19:48;;;;;;;2.62;1.40;;;;;;;;;;758338;183;903100;-83
2023/05/15 12:22:14;;;;;;;2.37;1.30;;;;;;;;;;763826;183;1025251;-80
2023/05/15 12:24:40;;;;;;;2.40;1.30;;;;;;;;;;759041;182;856049;-81
2023/05/15 12:27:06;;;;;;;2.70;1.50;;;;;;;;;;762627;180;913847;-82
2023/05/15 12:29:32;;;;;;;1.90;0.90;;;;;;;;;;763828;183;814983;-81
2023/05/15 12:31:57;;;;;;;2.33;1.00;;;;;;;;;;760364;181;1020169;-80
2023/05/15 12:34:23;;;;;;;2.00;0.90;;;;;;;;;;767192;181;866504;-79
2023/05/15 12:36:49;;;;;;;6.00;1.13;;;;;;;;;;764753;181;921948;-81
2023/05/15 12:39:15;;;;;;;3.07;1.20;;;;;;;;;;767727;183;809534;-81
2023/05/15 12:41:41;;;;;;;2.20;1.10;;;;;;;;;;759207;183;916728;-80
2023/05/15 12:44:07;;;;;;;1.90;0.90;;;;;;;;;;749029;183;1012384;-80
2023/05/15 12:46:32;;;;;;;2.90;1.30;;;;;;;;;;765248;182;1021701;-80
2023/05/15 12:48:58;;;;;;;7.30;1.50;;;;;;;;;;764446;183;909764;-80
2023/05/15 12:51:24;;;;;;;3.50;1.33;;;;;;;;;;763498;181;876682;-80
2023/05/15 12:53:52;;;;;;;2.50;1.30;;;;;;;;;;769554;180;908063;-80
2023/05/15 12:56:18;;;;;;;2.40;1.40;;;;;;;;;;767221;180;911517;-79
2023/05/15 12:58:43;;;;;;;2.10;1.20;;;;;;;;;;758131;181;907977;-81
2023/05/15 13:01:10;;;;;;;2.83;1.70;;;;;;;;;;764466;180;877750;-77
2023/05/15 13:03:35;;;;;;;2.50;1.33;;;;;;;;;;778576;177;915341;-79
2023/05/15 13:06:02;;;;;;;2.00;1.00;;;;;;;;;;754199;182;919144;-78
2023/05/15 13:08:28;;;;;;;2.00;1.10;;;;;;;;;;763989;180;910359;-79
2023/05/15 13:10:56;;;;;;;2.20;1.13;;;;;;;;;;770695;180;806524;-78
2023/05/15 13:13:22;;;;;;;30.93;2.43;;;;;;;;;;763986;180;907589;-78
2023/05/15 13:15:49;;;;;;;4.20;1.10;;;;;;;;;;758420;181;817294;-79
2023/05/15 13:18:14;;;;;;;2.20;1.23;;;;;;;;;;771178;180;903768;-78
2023/05/15 13:20:41;;;;;;;7.60;1.50;;;;;;;;;;769342;181;775806;-79
2023/05/15 13:23:07;;;;;;;2.37;1.60;;;;;;;;;;765250;180;809996;-78
2023/05/15 13:25:33;;;;;;;2.70;1.60;;;;;;;;;;767314;180;913003;-78
2023/05/15 13:27:59;;;;;;;2.50;1.40;;;;;;;;;;761653;181;793917;-79
2023/05/15 13:30:25;;;;;;;2.30;1.30;;;;;;;;;;763247;183;901028;-78
2023/05/15 13:32:51;;;;;;;4.83;1.47;;;;;;;;;;765463;182;918682;-79
2023/05/15 13:35:16;;;;;;;2.20;1.20;;;;;;;;;;769108;180;631306;-79
2023/05/15 13:37:42;;;;;;;2.20;1.37;;;;;;;;;;764402;180;922940;-77
2023/05/15 13:40:09;;;;;;;2.50;1.50;;;;;;;;;;757919;181;912274;-78
2023/05/15 13:42:36;;;;;;;2.80;1.60;;;;;;;;;;766512;181;921187;-77
2023/05/15 13:45:02;;;;;;;2.60;1.40;;;;;;;;;;764969;181;905228;-78
2023/05/15 13:47:28;;;;;;;2.90;1.30;;;;;;;;;;765101;182;713137;-77
2023/05/15 13:49:54;;;;;;;3.17;1.20;;;;;;;;;;760117;183;845422;-78
2023/05/15 13:52:20;;;;;;;2.57;1.40;;;;;;;;;;767945;183;920548;-78
2023/05/15 13:54:46;;;;;;;2.50;1.40;;;;;;;;;;741269;186;914470;-78
2023/05/15 13:57:12;;;;;;;2.40;1.50;;;;;;;;;;754664;183;921581;-77
2023/05/15 13:59:37;;;;;;;2.30;1.40;;;;;;;;;;760143;183;922025;-77
2023/05/15 14:02:03;;;;;;;2.53;1.47;;;;;;;;;;758130;181;976663;-77
2023/05/15 14:04:29;;;;;;;2.63;1.40;;;;;;;;;;760396;181;928002;-78
2023/05/15 14:06:55;;;;;;;2.63;1.30;;;;;;;;;;765405;180;917992;-77
2023/05/15 14:09:21;;;;;;;3.13;1.50;;;;;;;;;;760295;181;920515;-77
2023/05/15 14:11:47;;;;;;;3.43;1.40;;;;;;;;;;764954;183;917949;-77